メインページ
METAR-TAF:

METAR-TAF

空港 :

レシフェ/グアララペス・ジルベルト・フレイレ国際空港

レシフェ, ペルナンブーコ州, ブラジル

緯度: 08-08S, 経度: 034-55W, 海抜: 19m

現時点の気象観測

当レポートは26分前の06:00(UTC)に作成
北東の風 5kt
気温 25°C
湿度 79%
気圧 1009 hPa
視程10km以上
高度2000ftの雲は散在している

METAR: SBRF 200600Z 05005KT 9999 SCT020 25/21 Q1009

時間: 03:26 (06:26 UTC)

予報

当レポートは4時間26分前の02:00(UTC)に作成
予報は20日の 06時(UTC)から 21日の 06時(UTC)まで有効
の風 8kt
視程: 8000m
高度2000ftの雲は散在している

TAF: SBRF 200200Z 2006/2106 08008KT 8000 SCT020 TN25/2008Z TX28/2015Z RMK PEA

4,000以上の空港の気象観測と天気予報(METAR報とTAF報)

利用可能な観測所は地図上に黄色い丸と赤い丸で示す。

丸の上にカーソルを重ねると観測所名を参照できる。

次にクリックすると気象観測と天気予報を参照できる。

マップの切り替え:黒色「×」印の緑ボタンをクリックして拡大、「-」印の緑ボタンをクリックして縮小、緑色の三角印をクリックして隣りの地図に切り替え


METAR-TAF: